Time;durP1;ratioP1;P1;durP2;ratioP2;P2;SDS_P1;SDS_P2;PMS_P1;PMS_P2;Temp;Humidity;BMP_temperature;BMP_pressure;BME280_temperature;BME280_humidity;BME280_pressure;Samples;Min_cycle;Max_cycle;Signal;HPM_P1;HPM_P2
2022/11/29 00:00:30;;;;;;;25.13;15.93;;;9.60;99.90;;;;;;5091623;28;20020;-57
2022/11/29 00:02:56;;;;;;;26.15;15.68;;;9.60;99.90;;;;;;5096496;28;20031;-58
2022/11/29 00:05:21;;;;;;;25.88;15.75;;;9.60;99.90;;;;;;5094377;27;20024;-58
2022/11/29 00:07:48;;;;;;;26.27;16.20;;;9.60;99.90;;;;;;5078949;28;20035;-58
2022/11/29 00:10:13;;;;;;;23.70;15.65;;;9.60;99.90;;;;;;5095047;28;20111;-58
2022/11/29 00:12:39;;;;;;;21.77;15.07;;;9.60;99.90;;;;;;5091520;28;20139;-58
2022/11/29 00:15:05;;;;;;;22.70;14.77;;;9.50;99.90;;;;;;5093879;28;20094;-57
2022/11/29 00:17:30;;;;;;;23.60;16.05;;;9.50;99.90;;;;;;5097382;28;20512;-58
2022/11/29 00:19:56;;;;;;;23.27;15.93;;;9.50;99.90;;;;;;5091240;28;20032;-58
2022/11/29 00:22:23;;;;;;;24.60;16.80;;;9.40;99.90;;;;;;5094039;27;20048;-57
2022/11/29 00:24:49;;;;;;;25.40;16.73;;;9.40;99.90;;;;;;5094204;28;20082;-58
2022/11/29 00:27:15;;;;;;;27.85;19.70;;;9.40;99.90;;;;;;5090960;28;20028;-58
2022/11/29 00:29:40;;;;;;;27.92;17.88;;;9.40;99.90;;;;;;5090770;28;20023;-58
2022/11/29 00:32:06;;;;;;;30.58;21.05;;;9.30;99.90;;;;;;5093742;28;20048;-58
2022/11/29 00:34:31;;;;;;;35.10;23.27;;;9.30;99.90;;;;;;5090865;28;20028;-58
2022/11/29 00:36:57;;;;;;;34.95;24.25;;;9.20;99.90;;;;;;5095241;28;20381;-57
2022/11/29 00:39:23;;;;;;;37.83;22.48;;;9.10;99.90;;;;;;5072712;28;20411;-58
2022/11/29 00:41:48;;;;;;;31.15;21.65;;;9.10;99.90;;;;;;5092162;28;20036;-57
2022/11/29 00:44:14;;;;;;;32.63;20.77;;;9.10;99.90;;;;;;5095912;28;20480;-57
2022/11/29 00:46:39;;;;;;;34.63;19.98;;;9.20;99.90;;;;;;5094112;28;20028;-58
2022/11/29 00:49:05;;;;;;;26.20;18.25;;;9.20;99.90;;;;;;5090930;28;20027;-57
2022/11/29 00:51:31;;;;;;;27.80;17.55;;;9.30;99.90;;;;;;5092822;28;20023;-58
2022/11/29 00:53:57;;;;;;;25.60;17.45;;;9.30;99.90;;;;;;5096943;28;20028;-57
2022/11/29 00:56:22;;;;;;;29.67;18.15;;;9.30;99.90;;;;;;5090787;28;20012;-58
2022/11/29 00:58:48;;;;;;;30.23;18.80;;;9.30;99.90;;;;;;5101909;28;20118;-58
2022/11/29 01:01:14;;;;;;;28.33;17.67;;;9.30;99.90;;;;;;5093579;28;20477;-57
2022/11/29 01:03:39;;;;;;;31.38;17.13;;;9.30;99.90;;;;;;5095280;28;20032;-58
2022/11/29 01:06:11;;;;;;;25.10;17.55;;;9.30;99.90;;;;;;5090353;28;20020;-58
2022/11/29 01:08:36;;;;;;;27.50;18.17;;;9.30;99.90;;;;;;5090699;28;20082;-57
2022/11/29 01:11:12;;;;;;;28.67;17.73;;;9.30;99.90;;;;;;5090158;28;20492;-58
2022/11/29 01:13:38;;;;;;;28.65;17.38;;;9.40;99.90;;;;;;5090558;28;20020;-58
2022/11/29 01:16:04;;;;;;;25.92;16.85;;;9.40;99.90;;;;;;5095137;28;20024;-58
2022/11/29 01:18:30;;;;;;;27.58;18.42;;;9.40;99.90;;;;;;5115083;27;20043;-58
2022/11/29 01:20:59;;;;;;;29.55;16.90;;;9.40;99.90;;;;;;5113501;27;20416;-58
2022/11/29 01:23:25;;;;;;;25.10;17.63;;;9.40;99.90;;;;;;5093377;28;20028;-58
2022/11/29 01:25:59;;;;;;;26.40;17.33;;;9.40;99.90;;;;;;5096600;27;20032;-58
2022/11/29 01:28:24;;;;;;;32.67;21.45;;;9.40;99.90;;;;;;5073942;28;20111;-58
2022/11/29 01:30:50;;;;;;;37.20;23.67;;;9.30;99.90;;;;;;5081993;28;20119;-58
2022/11/29 01:33:16;;;;;;;38.08;23.77;;;9.30;99.90;;;;;;5089649;28;20047;-58
2022/11/29 01:35:52;;;;;;;39.15;25.38;;;9.20;99.90;;;;;;5093958;27;20020;-58
2022/11/29 01:38:18;;;;;;;34.95;23.08;;;9.20;99.90;;;;;;5089920;28;20027;-58
2022/11/29 01:40:54;;;;;;;35.20;23.05;;;9.10;99.90;;;;;;5092493;28;20055;-57
2022/11/29 01:43:20;;;;;;;33.30;21.80;;;9.10;99.90;;;;;;5092700;28;20028;-57
2022/11/29 01:45:48;;;;;;;31.35;19.33;;;9.10;99.90;;;;;;5092385;28;20451;-58
2022/11/29 01:48:13;;;;;;;28.40;18.88;;;9.10;99.90;;;;;;5092574;28;20083;-58
2022/11/29 01:50:40;;;;;;;26.55;17.27;;;9.20;99.90;;;;;;5099557;27;20438;-58
2022/11/29 01:53:07;;;;;;;26.15;16.77;;;9.20;99.90;;;;;;5092280;28;20032;-57
2022/11/29 01:55:37;;;;;;;33.17;19.30;;;9.30;99.90;;;;;;5094092;28;20027;-58
2022/11/29 01:58:04;;;;;;;28.95;17.98;;;9.20;99.90;;;;;;5092293;28;20473;-58
2022/11/29 02:00:31;;;;;;;36.30;20.17;;;9.30;99.90;;;;;;5092219;28;20530;-58
2022/11/29 02:03:04;;;;;;;29.75;17.85;;;9.30;99.90;;;;;;5094655;28;20107;-57
2022/11/29 02:05:31;;;;;;;30.98;18.30;;;9.30;99.90;;;;;;5089389;28;20063;-57
2022/11/29 02:07:59;;;;;;;33.83;18.95;;;9.30;99.90;;;;;;5089367;28;20489;-57
2022/11/29 02:10:35;;;;;;;30.30;18.58;;;9.30;99.90;;;;;;5092355;28;20051;-57
2022/11/29 02:13:27;;;;;;;34.65;19.25;;;9.40;99.90;;;;;;5088907;28;20062;-58
2022/11/29 02:16:06;;;;;;;33.08;18.05;;;9.40;99.90;;;;;;5088726;27;20045;-58
2022/11/29 02:18:43;;;;;;;35.15;21.00;;;9.40;99.90;;;;;;5091181;28;20035;-58
2022/11/29 02:21:31;;;;;;;35.40;19.30;;;9.40;99.90;;;;;;5089226;28;20024;-58
2022/11/29 02:24:18;;;;;;;37.25;19.83;;;9.40;99.90;;;;;;5091968;28;20036;-58
2022/11/29 02:26:49;;;;;;;44.05;23.77;;;9.40;99.90;;;;;;5092548;28;20092;-58
2022/11/29 02:29:49;;;;;;;41.20;21.95;;;9.40;99.90;;;;;;5091789;28;20060;-57
2022/11/29 02:32:17;;;;;;;38.58;21.85;;;9.40;99.90;;;;;;5082201;28;20046;-58
2022/11/29 02:34:55;;;;;;;37.85;21.98;;;9.40;99.90;;;;;;5093237;28;20032;-58
2022/11/29 02:37:46;;;;;;;35.08;21.17;;;9.40;99.90;;;;;;5091717;28;20019;-58
2022/11/29 02:40:43;;;;;;;35.28;21.20;;;9.40;99.90;;;;;;5094806;28;20042;-58
2022/11/29 02:43:34;;;;;;;34.08;20.98;;;9.40;99.90;;;;;;5095775;28;20028;-57
2022/11/29 02:46:06;;;;;;;39.40;21.42;;;9.40;99.90;;;;;;5092135;28;20062;-57
2022/11/29 02:48:50;;;;;;;31.67;19.20;;;9.40;99.90;;;;;;5088885;28;20027;-57
2022/11/29 02:51:45;;;;;;;31.05;19.65;;;9.40;99.90;;;;;;5091555;28;20404;-58
2022/11/29 02:54:25;;;;;;;35.95;21.17;;;9.40;99.90;;;;;;5083224;28;20118;-57
2022/11/29 02:56:57;;;;;;;35.05;20.73;;;9.40;99.90;;;;;;5088813;28;20027;-58
2022/11/29 02:59:44;;;;;;;32.80;20.45;;;9.30;99.90;;;;;;5091194;28;20020;-57
2022/11/29 03:03:04;;;;;;;40.92;21.17;;;9.40;99.90;;;;;;5088672;28;20012;-58
2022/11/29 03:05:51;;;;;;;30.52;17.67;;;9.40;99.90;;;;;;5004383;28;20033;-57
2022/11/29 03:08:34;;;;;;;32.50;20.50;;;9.40;99.90;;;;;;5088654;28;20032;-58
2022/11/29 03:11:19;;;;;;;39.90;23.52;;;9.30;99.90;;;;;;5091453;28;21258;-58
2022/11/29 03:14:23;;;;;;;36.80;21.73;;;9.30;99.90;;;;;;5091694;28;20040;-57
2022/11/29 03:16:52;;;;;;;36.30;20.95;;;9.30;99.90;;;;;;5074201;28;20038;-58
2022/11/29 03:19:45;;;;;;;44.08;21.90;;;9.30;99.90;;;;;;5098130;28;20541;-57
2022/11/29 03:22:13;;;;;;;40.22;20.83;;;9.30;99.90;;;;;;5094999;28;20095;-58
2022/11/29 03:25:04;;;;;;;44.88;21.42;;;9.30;99.90;;;;;;5094964;28;20024;-57
2022/11/29 03:27:39;;;;;;;44.72;21.88;;;9.40;99.90;;;;;;5094902;28;20046;-58
2022/11/29 03:30:08;;;;;;;41.70;20.67;;;9.40;99.90;;;;;;5092408;28;20069;-58
2022/11/29 03:32:58;;;;;;;42.38;20.73;;;9.40;99.90;;;;;;5091914;28;20065;-58
2022/11/29 03:35:45;;;;;;;42.65;20.95;;;9.40;99.90;;;;;;5094906;28;20373;-58
2022/11/29 03:38:37;;;;;;;39.03;20.10;;;9.40;99.90;;;;;;5095911;28;20034;-58
2022/11/29 03:41:26;;;;;;;38.78;20.27;;;9.40;99.90;;;;;;5091791;28;20022;-58
2022/11/29 03:44:23;;;;;;;40.20;20.38;;;9.50;99.90;;;;;;5094858;28;20213;-58
2022/11/29 03:47:17;;;;;;;37.53;19.65;;;9.50;99.90;;;;;;5094899;28;20039;-58
2022/11/29 03:49:58;;;;;;;43.67;21.85;;;9.40;99.90;;;;;;5091734;28;20075;-57
2022/11/29 03:52:32;;;;;;;44.05;23.73;;;9.40;99.90;;;;;;5091894;28;20520;-57
2022/11/29 03:55:23;;;;;;;51.25;26.08;;;9.40;99.90;;;;;;5094349;28;20024;-58
2022/11/29 03:57:55;;;;;;;46.00;22.75;;;9.30;99.90;;;;;;5097935;28;20029;-58
2022/11/29 04:00:21;;;;;;;46.83;23.27;;;9.30;99.90;;;;;;5091518;28;20024;-58
2022/11/29 04:03:01;;;;;;;43.28;22.08;;;9.30;99.90;;;;;;5096983;28;20025;-57
2022/11/29 04:05:52;;;;;;;50.53;24.05;;;9.40;99.90;;;;;;5091966;28;20028;-57
2022/11/29 04:08:45;;;;;;;49.70;24.35;;;9.30;99.90;;;;;;5094436;28;20027;-58
2022/11/29 04:11:31;;;;;;;42.88;21.80;;;9.30;99.90;;;;;;5091773;28;20024;-57
2022/11/29 04:14:29;;;;;;;46.65;22.80;;;9.30;99.90;;;;;;5094464;28;20032;-57
2022/11/29 04:17:25;;;;;;;43.13;22.35;;;9.30;99.90;;;;;;5094168;28;20107;-58
2022/11/29 04:20:09;;;;;;;42.33;21.35;;;9.30;99.90;;;;;;5095807;28;20035;-58
2022/11/29 04:23:00;;;;;;;42.38;21.15;;;9.30;99.90;;;;;;5094169;28;20389;-58
2022/11/29 04:25:53;;;;;;;49.50;21.80;;;9.30;99.90;;;;;;5094418;28;20386;-58
2022/11/29 04:28:56;;;;;;;44.65;19.88;;;9.40;99.90;;;;;;5094155;28;20541;-58
2022/11/29 04:31:46;;;;;;;40.63;19.67;;;9.40;99.90;;;;;;5096293;28;20028;-57
2022/11/29 04:34:56;;;;;;;49.88;20.95;;;9.40;99.90;;;;;;5084155;28;20044;-58
2022/11/29 04:37:59;;;;;;;45.47;20.45;;;9.40;99.90;;;;;;5076245;28;20016;-58
2022/11/29 04:40:57;;;;;;;45.85;20.48;;;9.40;99.90;;;;;;5091677;28;20114;-57
2022/11/29 04:43:52;;;;;;;45.38;21.65;;;9.40;99.90;;;;;;5093844;28;20022;-58
2022/11/29 04:46:30;;;;;;;38.35;17.98;;;9.40;99.90;;;;;;5093797;28;20016;-58
2022/11/29 04:49:19;;;;;;;46.30;21.33;;;9.40;99.90;;;;;;5091018;28;20028;-57
2022/11/29 04:52:14;;;;;;;47.67;22.13;;;9.50;99.90;;;;;;5093935;28;20031;-58
2022/11/29 04:55:01;;;;;;;41.85;18.35;;;9.40;99.90;;;;;;5096320;28;20070;-58
2022/11/29 04:57:38;;;;;;;43.15;17.23;;;9.40;99.90;;;;;;5090664;28;20016;-58
2022/11/29 05:00:08;;;;;;;46.63;21.73;;;9.40;99.90;;;;;;5093326;28;20484;-58
2022/11/29 05:02:51;;;;;;;44.25;21.42;;;9.40;99.90;;;;;;5094138;28;20069;-57
2022/11/29 05:05:33;;;;;;;45.60;21.58;;;9.40;99.90;;;;;;5093291;28;20099;-58
2022/11/29 05:08:37;;;;;;;42.38;21.25;;;9.40;99.90;;;;;;5090587;28;20028;-57
2022/11/29 05:11:36;;;;;;;33.47;18.95;;;9.50;99.90;;;;;;5090279;28;20026;-58
2022/11/29 05:14:34;;;;;;;35.75;19.70;;;9.40;99.90;;;;;;5093060;28;20115;-57
2022/11/29 05:17:26;;;;;;;44.65;21.60;;;9.40;99.90;;;;;;5092887;28;20035;-57
2022/11/29 05:20:17;;;;;;;40.03;20.73;;;9.40;99.90;;;;;;5095833;28;20040;-57
2022/11/29 05:23:04;;;;;;;35.60;20.90;;;9.40;99.90;;;;;;5091009;28;20023;-58
2022/11/29 05:25:48;;;;;;;34.17;21.05;;;9.30;99.90;;;;;;5097083;27;20024;-58
2022/11/29 05:28:39;;;;;;;37.17;21.35;;;9.30;99.90;;;;;;5090052;28;20043;-58
2022/11/29 05:31:34;;;;;;;32.72;19.80;;;9.40;99.90;;;;;;5092721;28;20030;-57
2022/11/29 05:34:28;;;;;;;32.20;20.38;;;9.30;99.90;;;;;;5089506;28;20062;-58
2022/11/29 05:37:41;;;;;;;35.53;20.83;;;9.20;99.90;;;;;;5092535;28;20052;-58
2022/11/29 05:40:52;;;;;;;29.90;18.20;;;9.20;99.90;;;;;;5077290;28;20032;-58
2022/11/29 05:43:26;;;;;;;29.55;18.17;;;9.10;99.90;;;;;;5095605;28;20059;-58
2022/11/29 05:46:06;;;;;;;30.38;18.13;;;9.10;99.90;;;;;;5089645;28;20497;-58
2022/11/29 05:48:50;;;;;;;29.40;18.25;;;9.20;99.90;;;;;;5089744;28;20032;-58
2022/11/29 05:51:26;;;;;;;30.60;18.30;;;9.10;99.90;;;;;;5092474;28;20019;-58
2022/11/29 05:54:13;;;;;;;29.80;17.35;;;9.10;99.90;;;;;;5092310;28;20114;-58
2022/11/29 05:57:15;;;;;;;31.98;17.83;;;9.10;99.90;;;;;;5089521;28;20077;-58
2022/11/29 05:59:43;;;;;;;29.38;17.70;;;9.10;99.90;;;;;;5092630;28;20032;-58
2022/11/29 06:02:50;;;;;;;30.77;16.85;;;9.10;99.90;;;;;;5104635;27;20016;-58
2022/11/29 06:05:35;;;;;;;30.33;16.73;;;9.20;99.90;;;;;;5070985;28;20062;-58
2022/11/29 06:08:16;;;;;;;32.92;18.73;;;9.10;99.90;;;;;;5092334;28;20070;-57
2022/11/29 06:11:05;;;;;;;30.08;17.08;;;9.10;99.90;;;;;;5084323;28;20028;-58
2022/11/29 06:13:52;;;;;;;32.92;17.58;;;9.10;99.90;;;;;;5089077;28;20481;-58
2022/11/29 06:16:44;;;;;;;26.80;16.73;;;9.10;99.90;;;;;;5091901;28;20390;-57
2022/11/29 06:19:36;;;;;;;28.88;17.30;;;9.10;99.90;;;;;;5095710;28;20081;-58
2022/11/29 06:22:15;;;;;;;30.80;17.23;;;9.10;99.90;;;;;;5099171;28;20015;-58
2022/11/29 06:25:12;;;;;;;28.08;16.88;;;9.00;99.90;;;;;;5091674;28;20016;-58
2022/11/29 06:27:52;;;;;;;28.65;16.42;;;9.00;99.90;;;;;;5093168;28;20556;-57
2022/11/29 06:30:21;;;;;;;27.60;15.95;;;9.00;99.90;;;;;;5094258;28;20035;-58
2022/11/29 06:32:53;;;;;;;26.45;15.50;;;9.00;99.90;;;;;;5104208;28;20040;-58
2022/11/29 06:35:36;;;;;;;29.58;16.65;;;9.00;99.90;;;;;;5105433;28;20019;-58
2022/11/29 06:38:23;;;;;;;29.40;16.10;;;9.10;99.90;;;;;;5104008;28;20085;-57
2022/11/29 06:40:50;;;;;;;32.70;16.75;;;9.10;99.90;;;;;;5097048;28;20103;-58
2022/11/29 06:43:16;;;;;;;32.13;18.92;;;9.00;99.90;;;;;;5099008;28;20484;-58
2022/11/29 06:45:48;;;;;;;30.85;18.10;;;9.10;99.90;;;;;;5108332;28;20484;-58
2022/11/29 06:48:24;;;;;;;34.70;20.00;;;9.10;99.90;;;;;;5109661;28;20023;-57
2022/11/29 06:51:01;;;;;;;32.83;18.63;;;9.10;99.90;;;;;;5106415;28;20484;-58
2022/11/29 06:53:47;;;;;;;30.33;16.60;;;9.10;99.90;;;;;;5102728;28;20457;-58
2022/11/29 06:56:30;;;;;;;27.58;15.57;;;9.10;99.90;;;;;;5091898;28;20039;-57
2022/11/29 06:59:07;;;;;;;25.48;13.90;;;9.00;99.90;;;;;;5103094;28;20113;-58
2022/11/29 07:01:51;;;;;;;26.88;14.90;;;9.00;99.90;;;;;;5103011;28;20027;-58
2022/11/29 07:04:39;;;;;;;25.42;14.75;;;9.00;99.90;;;;;;5099510;28;20043;-57
2022/11/29 07:07:19;;;;;;;26.77;13.50;;;9.00;99.90;;;;;;5095025;28;20370;-57
2022/11/29 07:09:48;;;;;;;24.45;13.57;;;9.00;99.90;;;;;;5102823;28;20473;-57
2022/11/29 07:12:14;;;;;;;25.40;14.55;;;9.00;99.90;;;;;;5102908;28;20027;-57
2022/11/29 07:14:40;;;;;;;22.35;14.00;;;9.00;99.90;;;;;;5102701;28;20028;-58
2022/11/29 07:17:32;;;;;;;29.35;16.20;;;9.00;99.90;;;;;;5092077;28;20177;-58
2022/11/29 07:20:12;;;;;;;21.73;13.27;;;9.00;99.90;;;;;;5102573;28;20044;-57
2022/11/29 07:22:50;;;;;;;23.27;14.07;;;9.00;99.90;;;;;;5094281;28;20017;-57
2022/11/29 07:25:46;;;;;;;22.42;12.65;;;9.00;99.90;;;;;;5105597;28;20476;-57
2022/11/29 07:28:32;;;;;;;25.20;14.25;;;9.00;99.90;;;;;;5096494;28;20021;-57
2022/11/29 07:31:05;;;;;;;29.38;15.35;;;8.90;99.90;;;;;;5103616;28;20540;-57
2022/11/29 07:33:42;;;;;;;31.27;16.48;;;8.80;99.90;;;;;;5087443;28;20047;-58
2022/11/29 07:36:25;;;;;;;23.52;13.55;;;8.80;99.90;;;;;;5106139;28;20492;-57
2022/11/29 07:39:08;;;;;;;22.38;14.30;;;8.90;99.90;;;;;;5094816;28;20056;-58
2022/11/29 07:42:09;;;;;;;21.27;11.88;;;8.90;99.90;;;;;;5073834;28;20016;-58
2022/11/29 07:44:44;;;;;;;22.02;12.02;;;8.80;99.90;;;;;;5091847;28;20020;-57
2022/11/29 07:47:09;;;;;;;21.15;12.98;;;8.80;99.90;;;;;;5091893;28;20027;-58
2022/11/29 07:49:35;;;;;;;23.25;13.05;;;8.80;99.90;;;;;;5095176;28;20025;-57
2022/11/29 07:52:00;;;;;;;27.73;14.80;;;8.70;99.90;;;;;;5076471;28;20472;-58
2022/11/29 07:54:26;;;;;;;27.50;15.35;;;8.70;99.90;;;;;;5099508;28;20027;-57
2022/11/29 07:56:51;;;;;;;24.83;13.80;;;8.80;99.90;;;;;;5090272;28;20063;-57
2022/11/29 07:59:17;;;;;;;26.85;14.40;;;8.70;99.90;;;;;;5104169;28;20032;-58
2022/11/29 08:01:43;;;;;;;24.50;13.90;;;8.70;99.90;;;;;;5104581;28;20027;-58
2022/11/29 08:04:08;;;;;;;26.00;14.48;;;8.70;99.90;;;;;;5095435;28;20030;-59
2022/11/29 08:06:35;;;;;;;24.13;13.70;;;8.70;99.90;;;;;;5076974;28;20027;-57
2022/11/29 08:09:01;;;;;;;25.33;14.23;;;8.70;99.90;;;;;;5096056;28;20050;-57
2022/11/29 08:11:27;;;;;;;26.30;13.15;;;8.70;99.90;;;;;;5113813;28;20488;-59
2022/11/29 08:13:57;;;;;;;23.38;14.65;;;8.80;99.90;;;;;;5100599;28;20106;-58
2022/11/29 08:16:23;;;;;;;23.88;13.45;;;8.80;99.90;;;;;;5097603;28;20058;-58
2022/11/29 08:18:48;;;;;;;27.48;14.80;;;8.80;99.90;;;;;;5105331;27;20059;-58
2022/11/29 08:21:16;;;;;;;26.42;14.13;;;8.80;99.90;;;;;;5097570;27;20038;-58
2022/11/29 08:23:46;;;;;;;25.13;13.27;;;8.80;99.90;;;;;;5112606;28;20076;-58
2022/11/29 08:26:12;;;;;;;26.70;13.57;;;8.80;99.90;;;;;;5094232;28;20104;-57
2022/11/29 08:28:38;;;;;;;24.83;11.75;;;8.80;99.90;;;;;;5105454;28;20051;-58
2022/11/29 08:31:06;;;;;;;25.48;12.40;;;8.80;99.90;;;;;;5072798;28;20484;-57
2022/11/29 08:33:34;;;;;;;19.63;11.23;;;8.80;99.90;;;;;;5100526;28;20050;-58
2022/11/29 08:36:15;;;;;;;20.75;10.70;;;8.80;99.90;;;;;;5109632;28;20423;-57
2022/11/29 08:38:40;;;;;;;19.20;10.73;;;8.90;99.90;;;;;;5110202;28;20062;-58
2022/11/29 08:41:08;;;;;;;18.52;11.32;;;8.80;99.90;;;;;;5110786;28;20055;-59
2022/11/29 08:43:34;;;;;;;20.20;11.18;;;8.80;99.90;;;;;;5111757;28;20072;-57
2022/11/29 08:46:00;;;;;;;20.95;11.57;;;8.80;99.90;;;;;;5093179;28;20051;-58
2022/11/29 08:48:26;;;;;;;18.80;11.18;;;8.80;99.90;;;;;;5110396;28;20074;-58
2022/11/29 08:50:53;;;;;;;19.15;10.85;;;8.80;99.90;;;;;;5113210;28;20031;-58
2022/11/29 08:56:04;;;;;;;22.02;13.32;;;8.90;99.90;;;;;;5106411;28;20073;-57
2022/11/29 08:58:29;;;;;;;22.05;12.70;;;8.90;99.90;;;;;;5100720;28;20032;-58
2022/11/29 09:00:55;;;;;;;26.77;14.07;;;8.90;99.90;;;;;;5106749;28;20078;-58
2022/11/29 09:06:11;;;;;;;20.92;11.30;;;8.90;99.90;;;;;;5105257;28;20035;-57
2022/11/29 09:08:37;;;;;;;19.92;11.23;;;8.90;99.90;;;;;;5095491;28;20028;-57
2022/11/29 09:11:07;;;;;;;20.88;11.68;;;8.90;99.90;;;;;;5105593;28;20039;-58
2022/11/29 09:13:33;;;;;;;19.13;11.35;;;8.90;99.90;;;;;;5094047;28;20527;-57
2022/11/29 09:15:58;;;;;;;21.70;11.18;;;9.00;99.90;;;;;;5106146;28;20027;-58
2022/11/29 09:18:27;;;;;;;20.50;11.68;;;9.00;99.90;;;;;;5094443;28;20103;-57
2022/11/29 09:20:52;;;;;;;21.70;12.18;;;9.00;99.90;;;;;;5093507;28;20540;-57
2022/11/29 09:23:18;;;;;;;17.95;11.48;;;9.00;99.90;;;;;;5093442;28;20125;-57
2022/11/29 09:25:48;;;;;;;21.95;13.05;;;9.00;99.90;;;;;;5110114;27;20020;-57
2022/11/29 09:28:14;;;;;;;20.05;12.13;;;9.10;99.90;;;;;;5099605;27;20095;-57
2022/11/29 09:30:40;;;;;;;24.15;13.27;;;9.10;99.90;;;;;;5093508;28;20117;-57
2022/11/29 09:33:05;;;;;;;18.98;12.75;;;9.10;99.90;;;;;;5106668;28;20505;-58
2022/11/29 09:35:32;;;;;;;25.80;12.75;;;9.10;99.90;;;;;;5104469;27;20030;-58
2022/11/29 09:37:57;;;;;;;21.48;12.40;;;9.20;99.90;;;;;;5099678;28;20008;-57
2022/11/29 09:40:36;;;;;;;19.10;11.45;;;9.20;99.90;;;;;;5102711;28;20031;-57
2022/11/29 09:43:12;;;;;;;18.77;11.50;;;9.20;99.90;;;;;;5093348;28;20024;-57
2022/11/29 09:45:44;;;;;;;18.58;10.95;;;9.20;99.90;;;;;;5094104;28;20048;-58
2022/11/29 09:49:05;;;;;;;16.80;9.88;;;9.20;99.90;;;;;;5104500;28;20493;-58
2022/11/29 09:52:03;;;;;;;17.95;9.93;;;9.30;99.90;;;;;;5062531;28;20039;-58
2022/11/29 09:55:02;;;;;;;18.75;11.55;;;9.20;99.90;;;;;;5020366;28;20435;-57
2022/11/29 09:57:30;;;;;;;16.90;11.13;;;9.20;99.90;;;;;;5093913;28;20041;-57
2022/11/29 10:00:01;;;;;;;18.38;11.38;;;9.20;99.90;;;;;;5093053;28;20485;-58
2022/11/29 10:02:38;;;;;;;18.58;10.40;;;9.30;99.90;;;;;;5093591;28;20047;-58
2022/11/29 10:05:27;;;;;;;15.95;9.68;;;9.30;99.90;;;;;;5108194;28;20035;-58
2022/11/29 10:08:13;;;;;;;19.90;11.75;;;9.40;99.90;;;;;;5096871;28;20107;-57
2022/11/29 10:10:47;;;;;;;20.10;12.07;;;9.40;99.90;;;;;;5097020;28;20028;-57
2022/11/29 10:13:24;;;;;;;17.55;11.48;;;9.40;99.90;;;;;;5092905;28;20024;-58
2022/11/29 10:16:19;;;;;;;18.70;11.82;;;9.40;99.90;;;;;;5096790;28;20075;-58
2022/11/29 10:19:00;;;;;;;23.83;11.90;;;9.40;99.90;;;;;;5103709;28;20397;-58
2022/11/29 10:21:35;;;;;;;20.05;10.48;;;9.40;99.90;;;;;;5092780;28;20051;-58
2022/11/29 10:24:23;;;;;;;20.10;11.32;;;9.40;99.90;;;;;;5091585;28;20507;-58
2022/11/29 10:26:48;;;;;;;19.80;11.15;;;9.40;99.90;;;;;;5116145;27;20040;-58
2022/11/29 10:29:15;;;;;;;19.58;11.00;;;9.40;99.90;;;;;;5104806;28;20020;-58
2022/11/29 10:31:45;;;;;;;17.48;11.25;;;9.40;99.90;;;;;;5093217;28;20073;-58
2022/11/29 10:34:15;;;;;;;17.45;10.65;;;9.40;99.90;;;;;;5092734;28;20484;-58
2022/11/29 10:36:51;;;;;;;17.45;8.73;;;9.40;99.90;;;;;;5092700;28;20024;-58
2022/11/29 10:39:35;;;;;;;17.52;9.70;;;9.50;99.90;;;;;;5092540;28;20431;-57
2022/11/29 10:42:02;;;;;;;17.60;9.18;;;9.50;99.90;;;;;;5080091;28;20047;-58
2022/11/29 10:44:30;;;;;;;19.50;11.35;;;9.50;99.90;;;;;;5088592;28;20015;-58
2022/11/29 10:46:57;;;;;;;20.40;11.50;;;9.50;99.90;;;;;;5106257;28;20500;-58
2022/11/29 10:49:26;;;;;;;22.20;12.57;;;9.60;99.90;;;;;;5106342;28;20089;-58
2022/11/29 10:51:52;;;;;;;17.40;10.18;;;9.60;99.90;;;;;;5111074;28;20028;-58
2022/11/29 10:54:26;;;;;;;20.60;11.77;;;9.60;99.90;;;;;;5109200;28;20027;-58
2022/11/29 10:56:54;;;;;;;20.20;10.98;;;9.60;99.90;;;;;;5108510;28;20023;-58
2022/11/29 10:59:25;;;;;;;19.08;11.60;;;9.60;99.90;;;;;;5107522;28;20465;-58
2022/11/29 11:01:51;;;;;;;20.30;10.02;;;9.60;99.90;;;;;;5110696;28;20024;-58
2022/11/29 11:04:20;;;;;;;19.10;9.95;;;9.60;99.90;;;;;;5110352;28;20011;-58
2022/11/29 11:06:50;;;;;;;20.10;9.60;;;9.60;99.90;;;;;;5107548;28;20035;-58
2022/11/29 11:09:20;;;;;;;16.20;9.13;;;9.60;99.90;;;;;;5089239;28;20028;-58
2022/11/29 11:11:57;;;;;;;21.00;10.35;;;9.70;99.90;;;;;;5109777;28;20032;-58
2022/11/29 11:14:33;;;;;;;17.42;9.88;;;9.70;99.90;;;;;;5091025;28;20607;-58
2022/11/29 11:17:24;;;;;;;23.77;11.65;;;9.70;99.90;;;;;;5107258;28;20031;-57
2022/11/29 11:20:04;;;;;;;20.05;10.10;;;9.70;99.90;;;;;;5089742;28;20527;-58
2022/11/29 11:22:31;;;;;;;19.08;10.18;;;9.80;99.90;;;;;;5107411;28;20107;-58
2022/11/29 11:25:07;;;;;;;18.33;10.25;;;9.70;99.90;;;;;;5113144;28;20386;-58
2022/11/29 11:27:34;;;;;;;15.65;8.77;;;9.70;99.90;;;;;;5084027;28;20020;-58
2022/11/29 11:30:01;;;;;;;16.60;8.48;;;9.80;99.90;;;;;;5099365;28;20020;-58
2022/11/29 11:32:27;;;;;;;15.27;8.00;;;9.80;99.90;;;;;;5097470;28;20047;-57
2022/11/29 11:34:55;;;;;;;17.50;9.35;;;9.80;99.90;;;;;;5076077;28;20446;-57
2022/11/29 11:37:32;;;;;;;19.83;10.02;;;9.90;99.90;;;;;;5109917;28;20026;-58
2022/11/29 11:40:17;;;;;;;22.67;11.32;;;9.90;99.90;;;;;;5102945;28;20024;-58
2022/11/29 11:42:43;;;;;;;24.05;11.50;;;9.90;99.90;;;;;;5101179;28;20019;-58
2022/11/29 11:45:12;;;;;;;22.92;11.38;;;9.90;99.90;;;;;;5112748;28;20472;-57
2022/11/29 11:47:47;;;;;;;23.27;12.52;;;9.90;99.90;;;;;;5112504;28;20031;-58
2022/11/29 11:50:29;;;;;;;24.48;12.27;;;9.90;99.90;;;;;;5114114;28;20018;-57
2022/11/29 11:52:58;;;;;;;21.02;10.85;;;9.90;99.90;;;;;;5110789;28;20042;-59
2022/11/29 11:55:35;;;;;;;17.73;10.33;;;9.90;99.90;;;;;;5112467;28;20019;-58
2022/11/29 11:58:04;;;;;;;19.77;10.38;;;9.90;99.90;;;;;;5113149;28;20020;-57
2022/11/29 12:00:42;;;;;;;17.10;9.27;;;9.90;99.90;;;;;;5112520;28;20027;-59
2022/11/29 12:03:25;;;;;;;17.08;9.00;;;9.90;99.90;;;;;;5109912;28;20559;-58
2022/11/29 12:05:55;;;;;;;16.35;9.23;;;9.90;99.90;;;;;;5111511;28;20027;-58
2022/11/29 12:08:21;;;;;;;15.57;9.48;;;9.90;99.90;;;;;;5113564;28;20499;-58
2022/11/29 12:10:50;;;;;;;19.13;9.95;;;9.90;99.90;;;;;;5113125;28;20496;-57
2022/11/29 12:13:23;;;;;;;18.15;10.25;;;10.00;99.90;;;;;;5110650;28;20024;-58
2022/11/29 12:15:51;;;;;;;23.85;11.55;;;10.00;99.90;;;;;;5111487;28;20027;-58
2022/11/29 12:18:27;;;;;;;20.20;11.00;;;10.00;99.90;;;;;;5112788;28;20016;-58
2022/11/29 12:21:13;;;;;;;19.10;9.85;;;10.10;99.90;;;;;;5111579;27;20368;-58
2022/11/29 12:23:43;;;;;;;19.13;10.32;;;10.10;99.90;;;;;;5089746;28;20016;-58
2022/11/29 12:26:15;;;;;;;22.65;11.70;;;10.10;99.90;;;;;;5107978;27;20020;-58
2022/11/29 12:28:43;;;;;;;18.00;10.38;;;10.10;99.90;;;;;;5105340;28;20024;-58
2022/11/29 12:31:19;;;;;;;17.15;10.38;;;10.10;99.90;;;;;;5108988;28;20016;-58
2022/11/29 12:34:04;;;;;;;17.88;9.57;;;10.10;99.90;;;;;;5110368;28;20331;-58
2022/11/29 12:36:52;;;;;;;24.00;12.45;;;10.20;99.90;;;;;;5102797;28;20142;-58
2022/11/29 12:39:41;;;;;;;21.73;12.27;;;10.20;99.90;;;;;;5108854;28;20030;-57
2022/11/29 12:42:23;;;;;;;22.90;11.95;;;10.20;99.90;;;;;;5094945;28;20020;-64
2022/11/29 12:44:56;;;;;;;26.08;12.85;;;10.20;99.90;;;;;;5099095;27;20024;-64
2022/11/29 12:48:01;;;;;;;23.83;11.73;;;10.20;99.90;;;;;;5089543;28;20027;-64
2022/11/29 12:50:42;;;;;;;21.80;11.60;;;10.30;99.90;;;;;;5110900;28;20023;-64
2022/11/29 12:53:23;;;;;;;17.65;9.90;;;10.20;99.90;;;;;;5108798;28;20107;-64
2022/11/29 12:56:12;;;;;;;21.35;10.80;;;10.30;99.90;;;;;;5104150;28;20020;-64
2022/11/29 12:58:52;;;;;;;24.30;11.55;;;10.30;99.90;;;;;;5109731;28;20020;-64
2022/11/29 13:01:31;;;;;;;;;;;10.30;99.90;;;;;;5112595;28;20030;-64
2022/11/29 13:04:30;;;;;;;20.05;10.73;;;10.20;99.90;;;;;;5099621;28;19908;-64
2022/11/29 13:07:03;;;;;;;23.50;12.30;;;10.20;99.90;;;;;;5107642;28;20031;-64
2022/11/29 13:09:45;;;;;;;20.13;11.57;;;10.20;99.90;;;;;;5091924;28;20465;-64
2022/11/29 13:12:24;;;;;;;21.58;11.45;;;10.20;99.90;;;;;;5091079;28;20469;-64
2022/11/29 13:15:05;;;;;;;25.65;11.85;;;10.30;99.90;;;;;;5114182;28;20036;-65
2022/11/29 13:17:47;;;;;;;21.90;11.75;;;10.30;99.90;;;;;;5103751;28;20077;-64
2022/11/29 13:20:20;;;;;;;19.70;11.55;;;10.30;99.90;;;;;;5100470;28;20039;-64
2022/11/29 13:22:58;;;;;;;18.17;11.10;;;10.30;99.90;;;;;;5103826;28;20077;-64
2022/11/29 13:25:32;;;;;;;22.00;12.32;;;10.30;99.90;;;;;;5114569;27;20046;-65
2022/11/29 13:28:04;;;;;;;20.13;11.20;;;10.30;99.90;;;;;;5096365;28;20030;-64
2022/11/29 13:30:30;;;;;;;22.60;12.05;;;10.20;99.90;;;;;;5093151;28;20016;-64